Flight Track Log - Related Links

Times and Time Zones

All times are in EDT time to prevent confusion due to time zone crossing. See the ASQ5941 flight status page for this flight to view local times or setup timezone preferences in your user account.

Time Position Orientation Groundspeed Altitude Reporting Facility
EDT Latitude Longitude Course Direction KTS MPH feet Rate Location/Type
Mon 18:13:53 41.2914 -75.7661 237° Southwest 189 217 2,800  Level New York Center
Mon 18:14:52 41.2439 -75.8067 213° Southwest 210 242 4,400 1,815 Climbing New York Center
Mon 18:15:52 41.2008 -75.8861 234° Southwest 244 281 6,400 1,983 Climbing New York Center
Mon 18:16:00 41.0809 -76.0387 239° Southwest  Level FlightAware Approximate
Mon 18:16:53 41.1636 -75.9744 241° Southwest 265 305 8,400  Level New York Center
Mon 18:17:00 41.0291 -76.1527 239° Southwest  Level FlightAware Approximate
Mon 18:17:53 41.1331 -76.0547 243° Southwest 279 321 10,200  Level New York Center
Mon 18:18:00 40.9783 -76.2673 240° Southwest  Level FlightAware Approximate
Mon 18:18:54 41.0911 -76.1533 241° Southwest 292 336 11,200  Level New York Center
Mon 18:19:00 40.9402 -76.3863 237° Southwest  Level FlightAware Approximate
Mon 18:19:51 41.0419 -76.2733 242° Southwest 336 387 12,300  Level New York Center
Mon 18:20:52 40.9947 -76.3875 241° Southwest 356 410 13,300 1,180 Climbing New York Center
Mon 18:21:53 40.9472 -76.5128 243° Southwest 378 435 14,700 1,261 Climbing New York Center
Mon 18:22:51 40.9022 -76.6217 241° Southwest 378 435 15,800 1,017 Climbing New York Center
Mon 18:23:51 40.8478 -76.7514 241° Southwest 378 435 16,700 893 Climbing New York Center
Mon 18:24:52 40.7978 -76.8758 242° Southwest 378 435 17,600 893 Climbing New York Center
Mon 18:25:52 40.7728 -76.9942 254° West 373 429 18,500 992 Climbing New York Center
Mon 18:26:53 40.7550 -77.1297 260° West 373 429 19,600 958 Climbing New York Center
Mon 18:27:51 40.7369 -77.2706 260° West 378 435 20,400 908 Climbing New York Center
Mon 18:28:52 40.7503 -77.4061 277° West 378 435 21,400 1,081 Climbing New York Center
Mon 18:30:32 40.7781 -77.6600 278° West 384 442 23,300 1,388 Climbing Cleveland Center
Mon 18:31:32 40.7897 -77.7939 277° West 389 448 25,100 1,150 Climbing Cleveland Center
Mon 18:32:32 40.8036 -77.9333 278° West 384 442 25,600 450 Climbing Cleveland Center
Mon 18:33:32 40.8153 -78.0781 276° West 389 448 26,000 200 Climbing Cleveland Center
Mon 18:34:32 40.8289 -78.2286 277° West 400 460 26,000 50 Level Cleveland Center
Mon 18:35:32 40.8442 -78.3681 278° West 420 483 26,100 600 Climbing Cleveland Center
Mon 18:36:32 40.8594 -78.5242 277° West 428 493 27,200 1,150 Climbing Cleveland Center
Mon 18:37:32 40.8725 -78.6692 277° West 417 480 28,400 1,150 Climbing Cleveland Center
Mon 18:38:32 40.8831 -78.8117 276° West 406 467 29,500 1,100 Climbing Cleveland Center
Mon 18:39:32 40.8956 -78.9514 277° West 396 456 30,600 1,050 Climbing Cleveland Center
Mon 18:40:32 40.9081 -79.0942 277° West 396 456 31,600 950 Climbing Cleveland Center
Mon 18:41:32 40.9203 -79.2339 277° West 390 449 32,500 950 Climbing Cleveland Center
Mon 18:42:32 40.9322 -79.3739 276° West 385 443 33,500 750 Climbing Cleveland Center
Mon 18:43:32 40.9439 -79.5167 276° West 385 443 34,000 250 Climbing Cleveland Center
Mon 18:44:32 40.9558 -79.6675 276° West 397 457 34,000 100 Level Cleveland Center
Mon 18:45:32 40.9672 -79.8269 275° West 417 480 34,200 500 Climbing Cleveland Center
Mon 18:46:32 40.9786 -79.9808 276° West 430 495 35,000 800 Climbing Cleveland Center
Mon 18:47:32 40.9897 -80.1375 275° West 430 495 35,800 500 Climbing Cleveland Center
Mon 18:48:32 41.0028 -80.2914 276° West 425 489 36,000 100 Climbing Cleveland Center
Mon 18:49:32 41.0136 -80.4511 275° West 425 489 36,000  Level Cleveland Center
Mon 18:50:32 41.0261 -80.6133 276° West 431 496 36,000  Level Cleveland Center
Mon 18:51:32 41.0364 -80.7922 274° West 441 507 36,000  Level Cleveland Center
Mon 18:52:32 41.0464 -80.9519 275° West 441 507 36,000  Level Cleveland Center
Mon 18:53:32 41.0542 -81.1064 274° West 436 502 36,000  Level Cleveland Center
Mon 18:54:32 41.0658 -81.2661 276° West 436 502 36,000  Level Cleveland Center
Mon 18:55:32 41.0750 -81.4231 274° West 441 507 36,000  Level Cleveland Center
Mon 18:56:32 41.0842 -81.5803 274° West 441 507 36,000  Level Cleveland Center
Mon 18:57:32 41.0931 -81.7431 274° West 441 507 36,000  Level Cleveland Center
Mon 18:58:32 41.1019 -81.8864 275° West 441 507 36,000  Level Cleveland Center
Mon 18:59:32 41.1125 -82.0494 275° West 441 507 36,000  Level Cleveland Center
Mon 19:00:32 41.1228 -82.2094 275° West 441 507 36,000  Level Cleveland Center
Mon 19:01:32 41.1308 -82.3694 274° West 441 507 36,000  Level Cleveland Center
Mon 19:02:32 41.1406 -82.5461 274° West 441 507 36,000  Level Cleveland Center
Mon 19:03:32 41.1481 -82.7064 274° West 441 507 36,000  Level Cleveland Center
Mon 19:04:32 41.1575 -82.8694 274° West 446 513 36,000  Level Cleveland Center
Mon 19:05:32 41.1667 -83.0325 274° West 445 512 36,000  Level Cleveland Center
Mon 19:06:32 41.1714 -83.1956 272° West 445 512 36,000  Level Cleveland Center
Mon 19:07:32 41.1778 -83.3586 273° West 445 512 36,000  Level Cleveland Center
Mon 19:08:32 41.1861 -83.5244 274° West 445 512 36,000  Level Cleveland Center
Mon 19:09:32 41.1925 -83.6847 273° West 445 512 36,000  Level Cleveland Center
Mon 19:10:32 41.2025 -83.8453 275° West 445 512 36,000  Level Cleveland Center
Mon 19:11:13 41.2078 -83.9258 275° West 437 503 36,000 -175 Level Chicago Center
Mon 19:12:15 41.2150 -84.1197 273° West 438 504 35,700 -624 Descending Chicago Center
Mon 19:13:18 41.2211 -84.2794 273° West 435 501 34,700 -816 Descending Chicago Center
Mon 19:14:20 41.2267 -84.4414 273° West 440 506 34,000 -339 Descending Chicago Center
Mon 19:15:22 41.2331 -84.6053 273° West 445 512 34,000  Level Chicago Center
Mon 19:16:24 41.2378 -84.7692 272° West 443 510 34,000  Level Chicago Center
Mon 19:17:26 41.2433 -84.9281 273° West 434 499 34,000 -484 Level Chicago Center
Mon 19:18:28 41.2508 -85.1156 273° West 423 487 33,000 -968 Descending Chicago Center
Mon 19:19:30 41.2567 -85.2797 273° West 437 503 32,000 -968 Descending Chicago Center
Mon 19:20:32 41.2628 -85.4447 273° West 442 509 31,000 -1,452 Descending Chicago Center
Mon 19:21:34 41.2692 -85.6069 273° West 438 504 29,000 -1,935 Descending Chicago Center
Mon 19:23:00 41.2667 -85.8099 270° West  Level FlightAware Approximate
Mon 19:23:38 41.2792 -85.9253 270° West 429 494 25,000  Level Chicago Center
Mon 19:24:40 41.2936 -86.0775 277° West 418 481 24,600 -864 Descending Chicago Center
Mon 19:25:43 41.3378 -86.2547 288° West 418 481 23,200 -1,152 Descending Chicago Center
Mon 19:26:45 41.3711 -86.3864 289° West 381 438 22,200 -968 Descending Chicago Center
Mon 19:27:47 41.4017 -86.5111 288° West 357 411 21,200 -968 Descending Chicago Center
Mon 19:28:49 41.4333 -86.6381 288° West 360 414 20,200 -1,403 Descending Chicago Center
Mon 19:29:51 41.4656 -86.7711 288° West 344 396 18,300 -1,935 Descending Chicago Center
Mon 19:30:53 41.4950 -86.8881 289° West 337 388 16,200 -1,984 Descending Chicago Center
Mon 19:31:55 41.5231 -87.0014 288° West 327 376 14,200 -1,548 Descending Chicago Center
Mon 19:32:57 41.5489 -87.1106 288° West 315 362 13,000 -1,065 Descending Chicago Center
Mon 19:33:59 41.5811 -87.2414 288° West 313 360 12,000 -919 Descending Chicago Center
Mon 19:35:01 41.6422 -87.3414 309° West 348 400 11,100 -919 Descending Chicago Center
Mon 19:36:03 41.7025 -87.4394 309° West 347 399 10,100 -532 Descending Chicago Center
Mon 19:37:05 41.7611 -87.5361 309° West 340 391 10,000 -339 Descending Chicago Center
Mon 19:38:07 41.8111 -87.6178 309° West 291 335 9,400 -871 Descending Chicago Center
Mon 19:39:09 41.8719 -87.7114 311° West 281 323 8,200 -1,065 Descending Chicago Center
Mon 19:40:11 41.9531 -87.7144 358° North 293 337 7,200 -912 Descending Chicago Center
Mon 19:41:14 42.0247 -87.6889 15° North 269 310 6,300 -1,056 Descending Chicago Center
Mon 19:42:16 42.0914 -87.6608 17° North 256 295 5,000 -1,161 Descending Chicago Center
Mon 19:43:18 42.1350 -87.7244 313° West 245 282 3,900 -968 Descending Chicago Center
Mon 19:44:20 42.0950 -87.7894 230° Southwest 210 242 3,000 -871 Descending Chicago Center

Login

Don't have an account? Register now (free) for customized features, flight alerts, and more!